« 定点 富山空港 2014/2/10 mon | トップページ | おnew 富山空港 2014/2/16 sun »

2014/02/12

定点 富山空港 2014/2/12 wed

青空。今日はあっまーい匂いにお腹がなる日でした。

RJNT 120100Z 04004KT 360V090 9999 FEW030 02/M07 Q1024

20140212_rjnt_00b6041

20140212_rjnt_01b6041

CSN613 ZYTL-RJNT B-6041 A319-132

20140212_rjnt_02ja818a

ゲ、02かよー

20140212_rjnt_03ja818a

20140212_rjnt_04ja818a

20140212_rjnt_05ja818a

20140212_rjnt_06ja818a

20140212_rjnt_07ja818a

ANA883 RJTT-RJNT JA818A B787-881

20140212_rjnt_08ja818a

20140212_rjnt_09ja818a

20140212_rjnt_10ja818a

ANA886 RJNT-RJTT JA818A B787-881

RJNT 120300Z 06003KT 010V130 9999 FEW035 04/M06 Q1023

20140212_rjnt_11b6041

お立ち台は、健在でした。

20140212_rjnt_12b6041

20140212_rjnt_13b6041

CSN614 RJNT-ZYTL B-6041 A319-132

20140212_rjnt_14ja9316

JA9316 AS350B AAK

20140212_rjnt_15ja6768

JA6768 B412 富山県消防防災

20140212_rjnt_16ja11an

20140212_rjnt_17ja11an

20140212_rjnt_18ja11an

ADO120 RJCC-RJNT JA11AN B737-781

RJNT 120500Z VRB03KT 9999 FEW040 05/M06 Q1022

20140212_rjnt_19ja11an

20140212_rjnt_20ja11an

ADO121 RJNT-RJCC JA11AN B737-781

20140212_rjnt_21ja8579

20140212_rjnt_22ja8579

20140212_rjnt_23ja8579

ANA885 RJTT-RJNT JA8579 B767-381

20140212_rjnt_24ja6769

JA6769 A109K2 富山県警察

ANA     /882 JA8669
ANA881/884 JA8288
ANA883/886 JA818A
ANA885/888 JA8579
ANA887/890 JA809A
ANA889/892 JA8357
ANA891       JA602A

ADO120/121 JA11AN

CSN613/614 B-6041

|

« 定点 富山空港 2014/2/10 mon | トップページ | おnew 富山空港 2014/2/16 sun »

富山空港」カテゴリの記事

コメント

コメントを書く



(ウェブ上には掲載しません)


コメントは記事投稿者が公開するまで表示されません。



トラックバック


この記事へのトラックバック一覧です: 定点 富山空港 2014/2/12 wed:

« 定点 富山空港 2014/2/10 mon | トップページ | おnew 富山空港 2014/2/16 sun »